Time;durP1;ratioP1;P1;durP2;ratioP2;P2;SDS_P1;SDS_P2;PMS_P1;PMS_P2;Temp;Humidity;BMP_temperature;BMP_pressure;BME280_temperature;BME280_humidity;BME280_pressure;Samples;Min_cycle;Max_cycle;Signal;HPM_P1;HPM_P2
2022/12/26 00:01:24;;;;;;;9.95;5.38;;;8.60;99.90;;;;;;5005772;28;20022;-62
2022/12/26 00:03:50;;;;;;;14.68;5.43;;;8.70;99.90;;;;;;5001348;28;20054;-62
2022/12/26 00:06:19;;;;;;;9.95;4.72;;;8.80;99.90;;;;;;4999676;28;20702;-61
2022/12/26 00:08:46;;;;;;;9.63;4.97;;;8.80;99.90;;;;;;5011019;28;20101;-62
2022/12/26 00:11:12;;;;;;;7.88;4.20;;;8.80;99.90;;;;;;4990424;28;20065;-61
2022/12/26 00:13:42;;;;;;;6.82;3.67;;;8.80;99.90;;;;;;4993909;28;20033;-62
2022/12/26 00:16:12;;;;;;;12.27;5.30;;;8.90;99.90;;;;;;5000569;28;20061;-62
2022/12/26 00:18:38;;;;;;;14.48;5.82;;;8.80;99.90;;;;;;4994534;28;20037;-62
2022/12/26 00:21:05;;;;;;;12.13;5.57;;;8.60;99.90;;;;;;5000700;28;20509;-63
2022/12/26 00:23:32;;;;;;;14.80;5.65;;;8.50;99.90;;;;;;5024814;28;20486;-61
2022/12/26 00:26:15;;;;;;;11.75;4.85;;;8.40;99.90;;;;;;5007505;28;20049;-62
2022/12/26 00:28:42;;;;;;;11.82;5.28;;;8.30;99.90;;;;;;5007779;28;20034;-61
2022/12/26 00:31:11;;;;;;;10.43;4.47;;;8.20;99.90;;;;;;5001904;28;20041;-63
2022/12/26 00:33:37;;;;;;;8.43;4.45;;;8.20;99.90;;;;;;5008125;28;20117;-62
2022/12/26 00:36:06;;;;;;;8.82;4.32;;;8.30;99.90;;;;;;5001856;28;20081;-63
2022/12/26 00:38:33;;;;;;;10.35;4.28;;;8.20;99.90;;;;;;5014986;28;20022;-61
2022/12/26 00:41:00;;;;;;;9.05;3.70;;;8.20;99.90;;;;;;5005518;28;20037;-63
2022/12/26 00:43:25;;;;;;;7.78;3.78;;;8.20;99.90;;;;;;5007459;28;20046;-61
2022/12/26 00:45:51;;;;;;;8.75;4.30;;;8.20;99.90;;;;;;5016483;28;20517;-61
2022/12/26 00:48:17;;;;;;;9.63;3.80;;;8.20;99.90;;;;;;5027999;28;20495;-60
2022/12/26 00:50:43;;;;;;;8.80;4.43;;;8.30;99.90;;;;;;5010425;28;20044;-61
2022/12/26 00:53:08;;;;;;;8.68;4.45;;;8.30;99.90;;;;;;5008220;28;20045;-62
2022/12/26 00:55:34;;;;;;;11.38;4.97;;;8.20;99.90;;;;;;5007646;28;20053;-62
2022/12/26 00:58:00;;;;;;;11.07;5.05;;;8.30;99.90;;;;;;4991831;28;20487;-64
2022/12/26 01:00:25;;;;;;;11.45;4.95;;;8.20;99.90;;;;;;5010360;28;20518;-62
2022/12/26 01:02:51;;;;;;;10.57;5.30;;;8.20;99.90;;;;;;5009475;28;20038;-63
2022/12/26 01:05:17;;;;;;;12.55;5.30;;;8.20;99.90;;;;;;5010098;28;20030;-63
2022/12/26 01:07:42;;;;;;;15.93;7.18;;;8.10;99.90;;;;;;5008617;28;20030;-63
2022/12/26 01:10:11;;;;;;;15.07;8.20;;;7.90;99.90;;;;;;4993246;28;20030;-62
2022/12/26 01:12:37;;;;;;;16.52;8.00;;;7.70;99.90;;;;;;4993788;28;20041;-62
2022/12/26 01:15:05;;;;;;;12.07;5.72;;;7.60;99.90;;;;;;5014319;28;20124;-63
2022/12/26 01:17:31;;;;;;;9.63;5.03;;;7.60;99.90;;;;;;5017485;28;20070;-62
2022/12/26 01:19:56;;;;;;;11.15;5.43;;;7.60;99.90;;;;;;4991176;28;20061;-63
2022/12/26 01:22:23;;;;;;;14.93;5.75;;;7.50;99.90;;;;;;4989664;28;20022;-62
2022/12/26 01:24:55;;;;;;;11.90;5.65;;;7.50;99.90;;;;;;4995856;28;20099;-63
2022/12/26 01:27:22;;;;;;;8.57;4.70;;;7.50;99.90;;;;;;5006462;28;20034;-62
2022/12/26 01:29:48;;;;;;;12.13;5.45;;;7.50;99.90;;;;;;5005505;28;20037;-62
2022/12/26 01:32:14;;;;;;;12.43;6.10;;;7.60;99.90;;;;;;5006929;28;20038;-62
2022/12/26 01:34:40;;;;;;;15.18;5.97;;;7.60;99.90;;;;;;5003194;28;20034;-62
2022/12/26 01:37:06;;;;;;;13.98;5.65;;;7.50;99.90;;;;;;5006345;28;20132;-64
2022/12/26 01:39:31;;;;;;;11.80;5.93;;;7.50;99.90;;;;;;4999769;28;20109;-61
2022/12/26 01:41:57;;;;;;;11.18;5.45;;;7.30;99.90;;;;;;4998863;28;20037;-63
2022/12/26 01:45:00;;;;;;;12.98;5.82;;;7.30;99.90;;;;;;4994031;28;20054;-63
2022/12/26 01:47:37;;;;;;;10.73;5.47;;;7.30;99.90;;;;;;4995910;28;20183;-62
2022/12/26 01:50:04;;;;;;;10.52;5.53;;;7.30;99.90;;;;;;4993222;28;20112;-63
2022/12/26 01:52:43;;;;;;;10.35;5.13;;;7.30;99.90;;;;;;4988274;28;20069;-62
2022/12/26 01:55:12;;;;;;;11.13;5.80;;;7.30;99.90;;;;;;4990931;28;20035;-64
2022/12/26 01:57:43;;;;;;;12.35;5.65;;;7.30;99.90;;;;;;4998551;28;20348;-62
2022/12/26 02:00:10;;;;;;;12.32;6.05;;;7.20;99.90;;;;;;4995328;28;20042;-62
2022/12/26 02:05:32;;;;;;;11.00;6.05;;;7.30;99.90;;;;;;5008440;28;20037;-62
2022/12/26 02:05:34;;;;;;;12.32;6.38;;;7.20;99.90;;;;;;5009894;28;20030;-62
2022/12/26 02:08:07;;;;;;;13.93;6.53;;;7.20;99.90;;;;;;5010175;28;20033;-63
2022/12/26 02:10:41;;;;;;;11.95;5.55;;;7.20;99.90;;;;;;5006689;28;20113;-63
2022/12/26 02:13:07;;;;;;;11.98;5.50;;;7.10;99.90;;;;;;5008599;28;20030;-63
2022/12/26 02:15:33;;;;;;;12.35;5.50;;;7.20;99.90;;;;;;5004268;28;20034;-63
2022/12/26 02:17:59;;;;;;;12.10;6.00;;;7.10;99.90;;;;;;5004909;28;20030;-64
2022/12/26 02:20:28;;;;;;;12.55;6.38;;;7.20;99.90;;;;;;4994437;28;20029;-63
2022/12/26 02:22:56;;;;;;;12.10;6.35;;;7.20;99.90;;;;;;4995116;28;20104;-62
2022/12/26 02:25:49;;;;;;;15.43;7.38;;;7.10;99.90;;;;;;5001973;28;20069;-63
2022/12/26 02:28:18;;;;;;;13.93;6.18;;;7.00;99.90;;;;;;5000152;28;20568;-62
2022/12/26 02:31:00;;;;;;;13.75;6.82;;;7.00;99.90;;;;;;5004489;28;20072;-63
2022/12/26 02:33:45;;;;;;;14.27;6.75;;;7.00;99.90;;;;;;5006509;28;20048;-63
2022/12/26 02:36:22;;;;;;;15.45;6.85;;;7.00;99.90;;;;;;4990843;28;20034;-62
2022/12/26 02:39:10;;;;;;;12.82;6.93;;;6.90;99.90;;;;;;4999935;28;20026;-63
2022/12/26 02:41:39;;;;;;;14.05;6.28;;;6.90;99.90;;;;;;5008466;28;20030;-61
2022/12/26 02:47:01;;;;;;;14.38;6.20;;;7.00;99.90;;;;;;5000236;28;20518;-63
2022/12/26 02:47:06;;;;;;;11.70;4.95;;;7.00;99.90;;;;;;5011181;28;20491;-63
2022/12/26 03:13:28;;;;;;;9.90;4.95;;;7.00;99.90;;;;;;4993237;28;20084;-63
2022/12/26 03:18:52;;;;;;;17.30;5.25;;;7.10;99.90;;;;;;5015457;28;20044;-63
2022/12/26 03:21:22;;;;;;;10.02;5.10;;;7.10;99.90;;;;;;5002427;28;20030;-62
2022/12/26 03:23:50;;;;;;;10.50;4.55;;;7.00;99.90;;;;;;4998020;28;20378;-62
2022/12/26 03:26:39;;;;;;;9.48;4.38;;;7.00;99.90;;;;;;5008926;28;20038;-63
2022/12/26 03:32:11;;;;;;;9.73;5.15;;;7.20;99.90;;;;;;5011956;28;20704;-62
2022/12/26 03:34:42;;;;;;;9.07;4.32;;;7.30;99.90;;;;;;5004262;28;20099;-63
2022/12/26 03:37:07;;;;;;;;;;;7.30;99.90;;;;;;5010758;28;20018;-62
2022/12/26 04:44:16;;;;;;;6.50;3.35;;;7.80;99.90;;;;;;4991124;28;20065;-64
2022/12/26 04:46:44;;;;;;;7.60;3.95;;;7.80;99.90;;;;;;4993624;28;20112;-62
2022/12/26 04:51:57;;;;;;;7.65;3.60;;;7.60;99.90;;;;;;4992540;28;20145;-63
2022/12/26 04:54:23;;;;;;;6.95;3.40;;;7.60;99.90;;;;;;4988331;28;20041;-62
2022/12/26 04:56:49;;;;;;;8.35;3.75;;;7.70;99.90;;;;;;4989556;28;20069;-63
2022/12/26 04:59:15;;;;;;;7.47;3.55;;;7.70;99.90;;;;;;5001657;28;20057;-64
2022/12/26 05:10:07;;;;;;;7.43;3.53;;;7.80;99.90;;;;;;4996958;28;20562;-63
2022/12/26 05:12:33;;;;;;;6.85;3.70;;;7.90;99.90;;;;;;5004332;28;20036;-63
2022/12/26 05:14:58;;;;;;;8.95;4.25;;;7.90;99.90;;;;;;4993441;28;20042;-63
2022/12/26 05:28:41;;;;;;;5.85;3.22;;;8.50;99.90;;;;;;5008677;28;20034;-63
2022/12/26 05:31:13;;;;;;;5.35;3.15;;;8.60;99.90;;;;;;4989291;28;20034;-64
2022/12/26 05:36:27;;;;;;;6.90;3.10;;;8.80;99.90;;;;;;5004248;28;20170;-62
2022/12/26 05:38:55;;;;;;;8.40;3.30;;;8.90;99.90;;;;;;5002741;28;20030;-63
2022/12/26 05:41:21;;;;;;;6.40;3.22;;;9.00;99.90;;;;;;4999024;28;20080;-64
2022/12/26 05:43:47;;;;;;;5.63;3.03;;;9.00;99.90;;;;;;4998366;28;20035;-63
2022/12/26 05:46:12;;;;;;;7.72;3.10;;;9.10;99.90;;;;;;4992919;28;20341;-63
2022/12/26 05:48:38;;;;;;;4.93;2.63;;;9.30;99.90;;;;;;5003941;28;20041;-63
2022/12/26 05:51:04;;;;;;;5.65;2.90;;;9.40;99.90;;;;;;5014002;28;20044;-63
2022/12/26 05:53:30;;;;;;;8.38;3.35;;;9.50;99.90;;;;;;5017639;28;20042;-63
2022/12/26 05:56:05;;;;;;;8.05;3.17;;;9.60;99.90;;;;;;5012470;28;20045;-63
2022/12/26 05:58:31;;;;;;;6.10;3.25;;;9.50;99.90;;;;;;5018214;28;20048;-63
2022/12/26 06:01:12;;;;;;;6.07;3.00;;;9.50;99.90;;;;;;5004335;28;20041;-63
2022/12/26 06:03:39;;;;;;;9.52;3.17;;;9.50;99.90;;;;;;4992266;28;20038;-62
2022/12/26 06:06:05;;;;;;;5.30;2.92;;;9.40;99.90;;;;;;4999205;28;20049;-62
2022/12/26 06:08:31;;;;;;;6.93;3.03;;;9.50;99.90;;;;;;5011038;28;20502;-61
2022/12/26 06:10:57;;;;;;;7.63;3.40;;;9.50;99.90;;;;;;5009327;28;20026;-62
2022/12/26 06:13:24;;;;;;;9.02;3.20;;;9.50;99.90;;;;;;5015900;28;20034;-63
2022/12/26 06:15:49;;;;;;;11.48;3.78;;;9.50;99.90;;;;;;5010718;28;20034;-62
2022/12/26 06:18:15;;;;;;;5.45;2.85;;;9.50;99.90;;;;;;5011866;28;20482;-63
2022/12/26 06:20:40;;;;;;;6.13;2.75;;;9.60;99.90;;;;;;5010138;28;20032;-63
2022/12/26 06:23:06;;;;;;;7.20;3.55;;;9.70;99.90;;;;;;5010844;28;20426;-63
2022/12/26 06:25:32;;;;;;;6.03;2.63;;;9.80;99.90;;;;;;5010017;28;20033;-63
2022/12/26 06:27:57;;;;;;;5.60;2.80;;;9.90;99.90;;;;;;5021070;28;20035;-63
2022/12/26 06:30:23;;;;;;;6.38;2.70;;;10.10;99.90;;;;;;5025885;28;20062;-64
2022/12/26 06:32:49;;;;;;;7.63;2.67;;;10.20;99.90;;;;;;5004137;28;20033;-63
2022/12/26 06:35:14;;;;;;;4.70;2.55;;;10.30;99.90;;;;;;5003585;28;20065;-63
2022/12/26 06:37:40;;;;;;;5.88;2.90;;;10.40;99.90;;;;;;4994747;28;20505;-62
2022/12/26 06:40:06;;;;;;;6.40;2.58;;;10.50;99.90;;;;;;5011675;28;20057;-62
2022/12/26 06:42:32;;;;;;;9.02;2.78;;;10.70;99.90;;;;;;5014729;28;20037;-62
2022/12/26 06:44:57;;;;;;;6.18;2.45;;;10.70;99.90;;;;;;5011321;28;20034;-62
2022/12/26 06:47:23;;;;;;;4.10;2.20;;;10.80;99.90;;;;;;5000476;28;20391;-63
2022/12/26 06:49:49;;;;;;;5.07;2.40;;;10.80;99.90;;;;;;4991655;28;20495;-63
2022/12/26 06:52:14;;;;;;;6.50;2.50;;;10.90;99.90;;;;;;4991558;28;20443;-63
2022/12/26 06:54:40;;;;;;;6.05;2.42;;;10.90;99.90;;;;;;4990820;28;20652;-63
2022/12/26 06:57:06;;;;;;;6.85;2.22;;;10.90;99.90;;;;;;4993118;28;20399;-63
2022/12/26 06:59:31;;;;;;;6.20;2.85;;;11.00;99.90;;;;;;5012730;28;20044;-64
2022/12/26 07:01:57;;;;;;;4.32;2.40;;;11.10;99.90;;;;;;5014906;28;20034;-62
2022/12/26 07:04:23;;;;;;;5.57;2.38;;;11.10;99.90;;;;;;5010286;28;20038;-63
2022/12/26 07:06:49;;;;;;;7.22;2.22;;;11.00;99.90;;;;;;5009297;28;20030;-63
2022/12/26 07:09:17;;;;;;;4.28;2.30;;;11.10;99.90;;;;;;5005340;28;20101;-63
2022/12/26 07:11:46;;;;;;;6.85;2.92;;;11.10;99.90;;;;;;4991248;28;20269;-63
2022/12/26 07:14:12;;;;;;;4.90;2.45;;;11.10;99.90;;;;;;4991054;28;20056;-62
2022/12/26 07:16:41;;;;;;;6.57;2.55;;;11.00;99.90;;;;;;4990271;28;20109;-63
2022/12/26 07:19:09;;;;;;;5.88;2.38;;;11.00;99.90;;;;;;5006052;28;20068;-64
2022/12/26 07:21:34;;;;;;;6.15;2.58;;;11.00;99.90;;;;;;5008126;28;20036;-63
2022/12/26 07:24:00;;;;;;;6.35;2.50;;;11.10;99.90;;;;;;5009671;28;20414;-62
2022/12/26 07:26:25;;;;;;;4.32;2.38;;;11.00;99.90;;;;;;4990867;28;20038;-64
2022/12/26 07:28:56;;;;;;;4.55;2.30;;;11.00;99.90;;;;;;4999804;28;20085;-63
2022/12/26 07:31:22;;;;;;;5.68;2.50;;;11.00;99.90;;;;;;4995043;28;20458;-62
2022/12/26 07:33:52;;;;;;;3.30;2.25;;;11.00;99.90;;;;;;5006987;28;20046;-62
2022/12/26 07:36:18;;;;;;;5.30;2.53;;;11.00;99.90;;;;;;5011578;28;20088;-63
2022/12/26 07:38:44;;;;;;;5.10;2.70;;;11.10;99.90;;;;;;4998008;28;20046;-64
2022/12/26 07:43:55;;;;;;;7.15;2.88;;;11.00;99.90;;;;;;5004756;28;20076;-62
2022/12/26 07:46:21;;;;;;;6.05;2.58;;;11.00;99.90;;;;;;4990296;28;20042;-63
2022/12/26 07:48:46;;;;;;;5.30;2.63;;;11.00;99.90;;;;;;4996189;28;20022;-62
2022/12/26 07:51:12;;;;;;;4.07;2.60;;;11.00;99.90;;;;;;5009996;28;20453;-64
2022/12/26 07:53:38;;;;;;;9.73;3.28;;;10.90;99.90;;;;;;5000747;28;20037;-63
2022/12/26 07:56:04;;;;;;;7.72;3.28;;;10.90;99.90;;;;;;5010023;28;20034;-63
2022/12/26 07:58:29;;;;;;;10.80;3.00;;;10.70;99.90;;;;;;4991407;28;20129;-63
2022/12/26 08:00:55;;;;;;;4.80;2.72;;;10.60;99.90;;;;;;4996813;28;20427;-63
2022/12/26 08:03:21;;;;;;;5.50;2.80;;;10.50;99.90;;;;;;4995679;28;20045;-64
2022/12/26 08:05:48;;;;;;;6.07;3.03;;;10.40;99.90;;;;;;5006647;28;20355;-63
2022/12/26 08:08:13;;;;;;;6.55;3.22;;;10.40;99.90;;;;;;5008438;28;20037;-63
2022/12/26 08:10:39;;;;;;;5.35;2.70;;;10.40;99.90;;;;;;4998250;28;20084;-64
2022/12/26 08:13:05;;;;;;;6.25;3.15;;;10.30;99.90;;;;;;4991651;28;20042;-63
2022/12/26 08:15:30;;;;;;;8.02;2.55;;;10.30;99.90;;;;;;4991165;28;20109;-64
2022/12/26 08:17:56;;;;;;;6.22;2.83;;;10.30;99.90;;;;;;4991710;28;20051;-63
2022/12/26 08:20:22;;;;;;;6.80;2.97;;;10.20;99.90;;;;;;5009894;28;20029;-64
2022/12/26 08:22:47;;;;;;;7.65;2.80;;;10.20;99.90;;;;;;4997654;28;20034;-63
2022/12/26 08:25:13;;;;;;;5.50;3.05;;;10.20;99.90;;;;;;4997357;28;20033;-62
2022/12/26 08:27:38;;;;;;;5.15;2.95;;;10.20;99.90;;;;;;5005185;28;20046;-64
2022/12/26 08:30:04;;;;;;;7.38;2.45;;;10.20;99.90;;;;;;5006843;28;20044;-63
2022/12/26 08:32:30;;;;;;;6.40;2.90;;;10.30;99.90;;;;;;5001169;28;20117;-64
2022/12/26 08:34:56;;;;;;;5.90;3.00;;;10.30;99.90;;;;;;5004501;28;20108;-63
2022/12/26 08:37:23;;;;;;;6.32;3.13;;;10.20;99.90;;;;;;5006585;28;20029;-63
2022/12/26 08:39:51;;;;;;;6.68;3.03;;;10.20;99.90;;;;;;5007680;28;20141;-64
2022/12/26 08:42:17;;;;;;;7.13;3.00;;;10.20;99.90;;;;;;5005909;28;20045;-64
2022/12/26 08:44:43;;;;;;;5.22;2.78;;;10.20;99.90;;;;;;5016903;28;20053;-64
2022/12/26 08:47:08;;;;;;;7.43;3.97;;;10.10;99.90;;;;;;4998916;28;20795;-64
2022/12/26 08:49:34;;;;;;;7.15;3.47;;;10.10;99.90;;;;;;5008345;28;20030;-62
2022/12/26 08:52:00;;;;;;;7.55;3.80;;;10.00;99.90;;;;;;4992801;28;20038;-63
2022/12/26 08:54:25;;;;;;;8.27;3.65;;;9.90;99.90;;;;;;5007372;28;20129;-63
2022/12/26 08:56:51;;;;;;;8.35;3.97;;;9.90;99.90;;;;;;5002817;28;20043;-62
2022/12/26 08:59:17;;;;;;;7.97;3.65;;;9.80;99.90;;;;;;4988441;28;20107;-63
2022/12/26 09:01:43;;;;;;;11.60;4.28;;;9.80;99.90;;;;;;5003877;28;20029;-63
2022/12/26 09:04:09;;;;;;;9.25;4.57;;;9.70;99.90;;;;;;5003992;28;20065;-63
2022/12/26 09:06:36;;;;;;;9.85;4.40;;;9.70;99.90;;;;;;5003895;28;20043;-63
2022/12/26 09:09:03;;;;;;;11.02;4.18;;;9.60;99.90;;;;;;4988899;28;20027;-62
2022/12/26 09:11:29;;;;;;;8.60;4.53;;;9.60;99.90;;;;;;4991839;28;20040;-64
2022/12/26 09:13:57;;;;;;;11.27;5.47;;;9.60;99.90;;;;;;5007506;28;20033;-63
2022/12/26 09:16:27;;;;;;;10.52;4.63;;;9.50;99.90;;;;;;5007091;28;20422;-63
2022/12/26 09:18:55;;;;;;;10.57;4.60;;;9.50;99.90;;;;;;5001189;28;20031;-63
2022/12/26 09:21:21;;;;;;;10.75;5.10;;;9.50;99.90;;;;;;4993365;28;20033;-63
2022/12/26 09:23:46;;;;;;;11.38;5.30;;;9.60;99.90;;;;;;4968518;28;1117321;-63
2022/12/26 09:26:15;;;;;;;14.63;6.60;;;9.60;99.90;;;;;;5006724;28;20034;-63
2022/12/26 09:28:41;;;;;;;12.63;5.60;;;9.50;99.90;;;;;;5032784;28;20038;-63
2022/12/26 09:31:10;;;;;;;12.70;5.40;;;9.40;99.90;;;;;;5002809;28;20110;-63
2022/12/26 09:33:36;;;;;;;11.30;5.38;;;9.40;99.90;;;;;;5008071;28;20045;-64
2022/12/26 09:36:05;;;;;;;9.95;5.28;;;9.50;99.90;;;;;;5027584;28;20046;-62
2022/12/26 09:38:32;;;;;;;13.35;5.65;;;9.50;99.90;;;;;;4998301;28;20105;-62
2022/12/26 09:41:06;;;;;;;12.20;5.70;;;9.50;99.90;;;;;;5002207;28;20042;-64
2022/12/26 09:44:16;;;;;;;12.80;5.68;;;9.50;99.90;;;;;;4998186;28;20450;-65
2022/12/26 09:47:18;;;;;;;13.70;6.43;;;9.50;99.90;;;;;;4964869;28;20043;-63
2022/12/26 09:49:54;;;;;;;16.52;6.85;;;9.50;99.90;;;;;;4964567;28;20039;-64
2022/12/26 09:52:51;;;;;;;13.15;6.63;;;9.50;99.90;;;;;;4965317;28;20129;-63
2022/12/26 09:55:44;;;;;;;16.90;7.35;;;9.40;99.90;;;;;;4932051;28;20070;-64
2022/12/26 09:58:24;;;;;;;15.50;6.88;;;9.40;99.90;;;;;;4960203;28;20581;-63
2022/12/26 10:00:55;;;;;;;16.30;7.50;;;9.40;99.90;;;;;;4961650;28;20039;-64
2022/12/26 10:03:22;;;;;;;14.95;6.75;;;9.40;99.90;;;;;;4962930;28;20133;-65
2022/12/26 10:06:02;;;;;;;19.05;7.68;;;9.40;99.90;;;;;;4963549;28;20094;-63
2022/12/26 10:08:48;;;;;;;17.38;7.88;;;9.40;99.90;;;;;;4950371;28;20031;-62
2022/12/26 10:11:34;;;;;;;15.88;7.85;;;9.40;99.90;;;;;;4967398;28;20538;-64
2022/12/26 10:14:23;;;;;;;16.50;7.78;;;9.30;99.90;;;;;;4965174;28;20228;-63
2022/12/26 10:16:52;;;;;;;14.77;7.18;;;9.40;99.90;;;;;;4969189;28;20132;-64
2022/12/26 10:19:58;;;;;;;16.33;7.68;;;9.40;99.90;;;;;;4999605;28;20028;-65
2022/12/26 10:22:57;;;;;;;15.25;7.63;;;9.40;99.90;;;;;;4999465;28;20088;-65
2022/12/26 10:25:35;;;;;;;15.88;8.00;;;9.30;99.90;;;;;;5002848;28;20140;-65
2022/12/26 10:28:03;;;;;;;15.15;7.55;;;9.20;99.90;;;;;;5001931;28;20069;-64
2022/12/26 10:30:40;;;;;;;16.63;6.75;;;9.30;99.90;;;;;;5000740;28;20033;-64
2022/12/26 10:33:15;;;;;;;31.95;7.03;;;9.30;99.90;;;;;;5002588;28;20472;-64
2022/12/26 10:35:45;;;;;;;18.65;6.32;;;9.30;99.90;;;;;;5002898;28;20030;-64
2022/12/26 10:38:38;;;;;;;15.88;6.32;;;9.30;99.90;;;;;;4999645;28;20184;-63
2022/12/26 10:41:32;;;;;;;12.75;5.30;;;9.20;99.90;;;;;;5004459;28;20046;-63
2022/12/26 10:43:58;;;;;;;8.57;4.63;;;9.20;99.90;;;;;;4999116;28;20057;-64
2022/12/26 10:46:32;;;;;;;10.23;5.43;;;9.20;99.90;;;;;;5002368;28;20830;-63
2022/12/26 10:48:58;;;;;;;9.38;4.35;;;9.10;99.90;;;;;;4999564;28;20156;-65
2022/12/26 10:51:25;;;;;;;10.70;4.53;;;9.10;99.90;;;;;;5001894;28;20103;-64
2022/12/26 10:53:52;;;;;;;10.73;4.25;;;9.10;99.90;;;;;;5002169;28;20088;-66
2022/12/26 10:56:20;;;;;;;9.07;4.90;;;9.10;99.90;;;;;;5002766;28;20041;-64
2022/12/26 10:58:59;;;;;;;9.43;4.63;;;9.10;99.90;;;;;;5001456;28;20044;-64
2022/12/26 11:01:29;;;;;;;9.40;4.30;;;9.10;99.90;;;;;;5002759;28;20099;-62
2022/12/26 11:03:56;;;;;;;6.30;3.43;;;9.10;99.90;;;;;;4991250;28;20045;-63
2022/12/26 11:06:43;;;;;;;8.68;3.58;;;9.00;99.90;;;;;;5019952;28;20889;-65
2022/12/26 11:09:37;;;;;;;8.10;3.75;;;9.00;99.90;;;;;;4994675;28;20044;-63
2022/12/26 11:12:03;;;;;;;6.70;3.05;;;9.00;99.90;;;;;;5015604;28;20037;-63
2022/12/26 11:14:38;;;;;;;6.50;2.80;;;9.00;99.90;;;;;;5007152;28;20224;-65
2022/12/26 11:17:11;;;;;;;5.78;2.78;;;9.00;99.90;;;;;;5000090;28;20038;-63
2022/12/26 11:19:40;;;;;;;5.15;2.55;;;9.00;99.90;;;;;;5001800;28;20030;-66
2022/12/26 11:22:27;;;;;;;4.93;2.50;;;9.00;99.90;;;;;;5002692;28;20042;-63
2022/12/26 11:25:19;;;;;;;6.05;2.60;;;9.00;99.90;;;;;;4998999;28;20069;-64
2022/12/26 11:27:54;;;;;;;6.32;2.58;;;9.10;99.90;;;;;;5001373;28;20509;-65
2022/12/26 11:30:24;;;;;;;5.30;2.30;;;9.10;99.90;;;;;;5002074;28;20479;-65
2022/12/26 11:33:12;;;;;;;4.60;2.67;;;9.10;99.90;;;;;;5000401;28;20045;-66
2022/12/26 11:36:08;;;;;;;5.25;2.55;;;9.10;99.90;;;;;;4998157;28;20033;-66
2022/12/26 11:38:52;;;;;;;4.95;2.55;;;9.10;99.90;;;;;;4998846;28;20058;-64
2022/12/26 11:41:32;;;;;;;7.18;3.38;;;9.10;99.90;;;;;;5003243;28;20034;-66
2022/12/26 11:44:01;;;;;;;;;;;9.00;99.90;;;;;;5001409;28;20029;-63
2022/12/26 11:47:00;;;;;;;8.35;2.78;;;9.10;99.90;;;;;;5000013;28;19920;-65
2022/12/26 11:49:37;;;;;;;8.02;3.47;;;9.10;99.90;;;;;;5001100;28;20104;-63
2022/12/26 11:52:32;;;;;;;9.20;4.10;;;9.10;99.90;;;;;;4999729;28;20854;-64
2022/12/26 11:55:00;;;;;;;8.32;4.20;;;9.10;99.90;;;;;;4975996;28;20045;-64
2022/12/26 11:57:31;;;;;;;9.15;4.50;;;9.00;99.90;;;;;;4999801;28;20062;-63
2022/12/26 12:00:18;;;;;;;11.82;5.40;;;9.10;99.90;;;;;;5005055;28;20522;-63
2022/12/26 12:02:44;;;;;;;12.27;5.35;;;9.10;99.90;;;;;;5000563;28;20040;-63
2022/12/26 12:05:27;;;;;;;12.88;6.60;;;9.10;99.90;;;;;;4998850;28;20109;-63
2022/12/26 12:08:10;;;;;;;8.15;4.50;;;9.10;99.90;;;;;;5007840;28;20043;-64
2022/12/26 12:10:56;;;;;;;8.63;4.60;;;9.10;99.90;;;;;;5009844;28;20113;-63
2022/12/26 12:13:40;;;;;;;9.57;4.88;;;9.10;99.90;;;;;;5017807;28;20092;-62
2022/12/26 12:16:30;;;;;;;10.63;5.35;;;9.10;99.90;;;;;;5014221;28;20105;-63
2022/12/26 12:19:02;;;;;;;10.20;5.18;;;9.10;99.90;;;;;;4996862;28;20108;-65
2022/12/26 12:21:40;;;;;;;11.25;5.35;;;9.00;99.90;;;;;;5008492;28;20089;-66
2022/12/26 12:24:11;;;;;;;10.02;5.03;;;9.00;99.90;;;;;;4997548;28;20068;-63
2022/12/26 12:26:59;;;;;;;12.35;5.78;;;9.00;99.90;;;;;;4991319;28;20030;-63
2022/12/26 12:29:57;;;;;;;11.48;5.55;;;9.00;99.90;;;;;;4996947;28;20113;-64
2022/12/26 12:32:57;;;;;;;12.48;5.60;;;9.10;99.90;;;;;;5003331;28;20030;-63
2022/12/26 12:35:33;;;;;;;10.40;5.18;;;9.10;99.90;;;;;;4994622;28;20033;-63
2022/12/26 12:38:18;;;;;;;11.15;5.13;;;9.10;99.90;;;;;;5008009;28;20597;-62
2022/12/26 12:41:09;;;;;;;12.07;5.07;;;9.10;99.90;;;;;;5008308;28;20057;-63
2022/12/26 12:44:02;;;;;;;9.88;5.05;;;9.20;99.90;;;;;;4995324;28;20038;-64
2022/12/26 12:46:39;;;;;;;12.77;5.07;;;9.20;99.90;;;;;;4996654;28;20421;-62
2022/12/26 12:49:37;;;;;;;11.65;5.55;;;9.20;99.90;;;;;;4988745;28;20042;-64
2022/12/26 12:52:20;;;;;;;10.35;5.43;;;9.20;99.90;;;;;;4988438;28;20034;-62
2022/12/26 12:55:12;;;;;;;13.60;6.20;;;9.20;99.90;;;;;;4989711;28;20138;-62
2022/12/26 12:58:05;;;;;;;13.82;5.88;;;9.20;99.90;;;;;;4989297;28;20031;-62
2022/12/26 13:00:38;;;;;;;14.15;5.85;;;9.20;99.90;;;;;;4998859;28;20038;-63
2022/12/26 13:03:23;;;;;;;12.73;5.72;;;9.30;99.90;;;;;;5002961;28;20045;-63
2022/12/26 13:06:19;;;;;;;13.57;5.60;;;9.30;99.90;;;;;;4997253;28;20034;-63
2022/12/26 13:09:01;;;;;;;11.45;5.75;;;9.20;99.90;;;;;;4994397;28;20499;-63
2022/12/26 13:11:34;;;;;;;11.00;5.05;;;9.20;99.90;;;;;;5003936;28;20040;-64
2022/12/26 13:14:29;;;;;;;10.23;5.80;;;9.30;99.90;;;;;;5007341;28;20091;-61
2022/12/26 13:17:02;;;;;;;13.35;5.90;;;9.30;99.90;;;;;;5006401;28;20077;-62
2022/12/26 13:19:56;;;;;;;12.20;5.50;;;9.30;99.90;;;;;;4987677;28;20053;-61
2022/12/26 13:25:36;;;;;;;10.57;5.65;;;9.30;99.90;;;;;;5007739;28;20542;-63
2022/12/26 13:28:09;;;;;;;;;;;9.30;99.90;;;;;;4989174;28;20710;-62
2022/12/26 13:30:36;;;;;;;8.63;4.63;;;9.30;99.90;;;;;;4990000;28;19917;-63
2022/12/26 13:33:04;;;;;;;8.60;4.28;;;9.40;99.90;;;;;;4986837;28;20110;-61
2022/12/26 13:35:54;;;;;;;7.40;3.45;;;9.40;99.90;;;;;;4995318;28;20410;-63
2022/12/26 13:38:21;;;;;;;10.25;3.70;;;9.40;99.90;;;;;;4988791;28;20030;-63
2022/12/26 13:43:53;;;;;;;6.28;3.35;;;9.40;99.90;;;;;;4988709;28;20034;-63
2022/12/26 13:44:03;;;;;;;6.88;3.55;;;9.40;99.90;;;;;;4988203;28;20050;-64
2022/12/26 13:46:41;;;;;;;6.60;3.25;;;9.40;99.90;;;;;;4991095;28;20061;-62
2022/12/26 13:49:36;;;;;;;5.22;2.72;;;9.40;99.90;;;;;;5007303;28;20087;-63
2022/12/26 13:52:14;;;;;;;7.03;3.42;;;9.40;99.90;;;;;;4999503;28;20705;-63
2022/12/26 13:54:46;;;;;;;8.88;3.17;;;9.40;99.90;;;;;;4990550;28;20483;-64
2022/12/26 13:57:36;;;;;;;7.82;3.00;;;9.30;99.90;;;;;;5005991;28;20041;-64
2022/12/26 14:00:11;;;;;;;4.68;2.67;;;9.30;99.90;;;;;;5007824;28;20030;-63
2022/12/26 14:03:20;;;;;;;4.38;2.42;;;9.30;99.90;;;;;;4996980;28;20030;-62
2022/12/26 14:05:45;;;;;;;3.85;2.28;;;9.30;99.90;;;;;;5006358;28;20049;-63
2022/12/26 14:08:31;;;;;;;5.47;2.15;;;9.30;99.90;;;;;;5005264;28;20034;-62
2022/12/26 14:11:17;;;;;;;4.63;2.60;;;9.30;99.90;;;;;;4991542;28;20034;-62
2022/12/26 14:14:12;;;;;;;3.45;1.83;;;9.30;99.90;;;;;;5005623;28;20041;-62
2022/12/26 14:16:47;;;;;;;4.10;2.40;;;9.30;99.90;;;;;;5011166;28;20034;-63
2022/12/26 14:19:42;;;;;;;4.28;2.25;;;9.20;99.90;;;;;;5007691;28;20041;-63
2022/12/26 14:22:25;;;;;;;3.00;1.45;;;9.20;99.90;;;;;;4992389;28;20128;-63
2022/12/26 14:25:19;;;;;;;3.80;1.77;;;9.20;99.90;;;;;;5022979;28;20531;-63
2022/12/26 14:28:11;;;;;;;3.60;1.80;;;9.20;99.90;;;;;;4997150;28;20160;-65
2022/12/26 14:31:25;;;;;;;4.07;1.58;;;9.20;99.90;;;;;;5009903;28;20030;-64
2022/12/26 14:34:02;;;;;;;3.30;1.67;;;9.20;99.90;;;;;;4965322;28;20826;-64
2022/12/26 14:37:12;;;;;;;3.55;1.70;;;9.20;99.90;;;;;;4949875;29;20098;-62
2022/12/26 14:40:05;;;;;;;2.77;1.40;;;9.20;99.90;;;;;;4950252;29;20066;-64
2022/12/26 14:43:09;;;;;;;3.63;1.50;;;9.10;99.90;;;;;;4950382;29;20271;-64
2022/12/26 14:45:38;;;;;;;3.83;1.70;;;9.10;99.90;;;;;;4950208;29;20135;-62
2022/12/26 14:48:15;;;;;;;3.10;1.48;;;9.10;99.90;;;;;;4959493;28;20030;-64
2022/12/26 14:50:44;;;;;;;3.22;1.50;;;9.10;99.90;;;;;;4949602;28;20047;-63
2022/12/26 14:53:19;;;;;;;3.30;1.73;;;9.10;99.90;;;;;;4948856;29;20078;-63
2022/12/26 14:55:52;;;;;;;4.38;1.85;;;9.10;99.90;;;;;;4949682;29;20110;-63
2022/12/26 14:58:38;;;;;;;2.53;1.50;;;9.10;99.90;;;;;;4949862;29;20043;-63
2022/12/26 15:01:16;;;;;;;3.75;1.58;;;9.10;99.90;;;;;;4949185;29;20035;-62
2022/12/26 15:04:33;;;;;;;3.70;1.42;;;9.10;99.90;;;;;;4978564;28;20060;-63
2022/12/26 15:07:06;;;;;;;3.33;1.67;;;9.10;99.90;;;;;;5006563;28;20566;-62
2022/12/26 15:09:41;;;;;;;3.42;1.40;;;9.10;99.90;;;;;;5014563;28;20049;-64
2022/12/26 15:12:09;;;;;;;2.55;1.23;;;9.10;99.90;;;;;;4990696;28;20034;-63
2022/12/26 15:15:06;;;;;;;2.50;1.40;;;9.10;99.90;;;;;;4990995;28;20403;-64
2022/12/26 15:17:53;;;;;;;3.55;1.35;;;9.10;99.90;;;;;;5013216;28;20029;-63
2022/12/26 15:20:50;;;;;;;3.00;1.42;;;9.10;99.90;;;;;;5016770;28;20157;-64
2022/12/26 15:23:21;;;;;;;2.65;1.33;;;9.10;99.90;;;;;;5019684;28;20124;-63
2022/12/26 15:26:18;;;;;;;3.00;1.42;;;9.20;99.90;;;;;;5022269;28;20041;-63
2022/12/26 15:28:52;;;;;;;3.30;1.30;;;9.10;99.90;;;;;;5010316;28;20034;-64
2022/12/26 15:31:43;;;;;;;3.00;1.45;;;9.10;99.90;;;;;;5013790;28;20076;-63
2022/12/26 15:34:18;;;;;;;3.95;1.70;;;9.10;99.90;;;;;;4992927;28;20034;-63